LFRK/CFR METAR and TAF weather

Enter ICAO airport designator
Station Type Date Time Source
LFRK METAR 2019/08/23 16:00 UTC NOAA

LFRK 231600Z AUTO 03010KT 360V070 CAVOK 25/14 Q1022 NOSIG


Station Type Date Time Source
LFRK Decoded METAR 2019/08/23 16:00 UTC NOAA

Station name not available
Aug 23, 2019 - 12:00 PM EDT / 2019.08.23 1600 UTC
Wind: from the NNE (030 degrees) at 12 MPH (10 KT) (direction variable):0
Visibility: greater than 7 mile(s):0
Temperature: 77 F (25 C)
Dew Point: 57 F (14 C)
Relative Humidity: 50%
Pressure (altimeter): 30.18 in. Hg (1022 hPa)
ob: LFRK 231600Z AUTO 03010KT 360V070 CAVOK 25/14 Q1022 NOSIG
cycle: 16

Station Type Date Time Source
LFRK TAF UTC NOAA

Error!

Example: see airport list